createdAt,value
2018-12-17T00:02:03.701Z,99824.75
2018-12-17T00:07:10.147Z,99831.41
2018-12-17T00:09:36.269Z,99831.19
2018-12-17T00:12:02.696Z,99834.68
2018-12-17T00:14:35.841Z,99838.44
2018-12-17T00:17:02.037Z,99838.16
2018-12-17T00:19:28.240Z,99839.47
2018-12-17T00:21:54.476Z,99839.80
2018-12-17T00:24:20.889Z,99846.21
2018-12-17T00:26:47.115Z,99845.48
2018-12-17T00:29:13.314Z,99853.86
2018-12-17T00:31:46.450Z,99850.98
2018-12-17T00:34:12.611Z,99846.33
2018-12-17T00:36:38.893Z,99854.24
2018-12-17T00:39:06.039Z,99853.02
2018-12-17T00:41:32.323Z,99851.52
2018-12-17T00:43:58.486Z,99855.95
2018-12-17T00:46:24.760Z,99855.73
2018-12-17T00:48:51.063Z,99858.14
2018-12-17T00:51:17.613Z,99863.62
2018-12-17T00:53:43.834Z,99857.64
2018-12-17T00:56:10.143Z,99861.91
2018-12-17T00:58:36.452Z,99857.80
2018-12-17T01:01:02.949Z,99862.77
2018-12-17T01:03:29.187Z,99860.62
2018-12-17T01:05:55.501Z,99862.99
2018-12-17T01:08:21.675Z,99865.17
2018-12-17T01:10:47.891Z,99867.78
2018-12-17T01:13:14.120Z,99870.27
2018-12-17T01:15:40.432Z,99876.23
2018-12-17T01:18:06.680Z,99876.74
2018-12-17T01:20:32.936Z,99880.80
2018-12-17T01:22:59.060Z,99886.26
2018-12-17T01:25:25.394Z,99878.41
2018-12-17T01:27:51.746Z,99880.80
2018-12-17T01:30:24.989Z,99885.02
2018-12-17T01:32:51.379Z,99888.34
2018-12-17T01:35:17.641Z,99886.20
2018-12-17T01:37:43.841Z,99881.80
2018-12-17T01:40:10.290Z,99888.80
2018-12-17T01:42:36.455Z,99893.40
2018-12-17T01:45:04.113Z,99891.26
2018-12-17T01:47:30.225Z,99893.86
2018-12-17T01:49:56.467Z,99902.25
2018-12-17T01:52:22.594Z,99901.52
2018-12-17T01:54:48.754Z,99890.02
2018-12-17T01:57:14.886Z,99899.64
2018-12-17T01:59:41.237Z,99898.73
2018-12-17T02:02:07.869Z,99907.71
2018-12-17T02:04:34.091Z,99908.91
2018-12-17T02:07:00.403Z,99912.39
2018-12-17T02:09:26.542Z,99904.95
2018-12-17T02:11:52.634Z,99911.89
2018-12-17T02:14:18.829Z,99910.75
2018-12-17T02:16:44.995Z,99910.23
2018-12-17T02:19:11.339Z,99911.08
2018-12-17T02:21:37.763Z,99912.21
2018-12-17T02:24:04.078Z,99914.48
2018-12-17T02:26:30.378Z,99914.38
2018-12-17T02:28:56.497Z,99918.63
2018-12-17T02:31:22.602Z,99915.88
2018-12-17T02:33:48.850Z,99916.66
2018-12-17T02:36:14.963Z,99905.22
2018-12-17T02:38:41.165Z,99907.52
2018-12-17T02:41:07.393Z,99894.39
2018-12-17T02:43:33.524Z,99903.70
2018-12-17T02:46:06.656Z,99905.56
2018-12-17T02:48:32.785Z,99904.66
2018-12-17T02:50:59.066Z,99903.72
2018-12-17T02:53:25.291Z,99903.14
2018-12-17T02:55:51.536Z,99911.31
2018-12-17T02:58:17.717Z,99908.78
2018-12-17T03:00:44.093Z,99908.81
2018-12-17T03:03:10.210Z,99921.84
2018-12-17T03:05:36.449Z,99916.55
2018-12-17T03:08:02.819Z,99919.55
2018-12-17T03:10:29.070Z,99922.41
2018-12-17T03:12:55.372Z,99921.61
2018-12-17T03:15:21.559Z,99916.53
2018-12-17T03:17:47.774Z,99925.89
2018-12-17T03:20:13.899Z,99927.80
2018-12-17T03:22:40.030Z,99929.78
2018-12-17T03:25:06.305Z,99933.00
2018-12-17T03:27:32.533Z,99924.57
2018-12-17T03:29:58.729Z,99930.34
2018-12-17T03:32:25.020Z,99924.86
2018-12-17T03:34:51.420Z,99931.90
2018-12-17T03:37:24.634Z,99934.78
2018-12-17T03:39:50.830Z,99942.01
2018-12-17T03:42:17.385Z,99932.28
2018-12-17T03:44:43.507Z,99936.70
2018-12-17T03:47:09.734Z,99944.92
2018-12-17T03:49:35.957Z,99946.94
2018-12-17T03:52:02.422Z,99942.20
2018-12-17T03:54:28.779Z,99945.55
2018-12-17T03:56:54.978Z,99943.14
2018-12-17T03:59:21.188Z,99945.64
2018-12-17T04:01:47.561Z,99944.19
2018-12-17T04:04:13.662Z,99961.33
2018-12-17T04:06:39.882Z,99955.97
2018-12-17T04:09:06.083Z,99960.89
2018-12-17T04:11:32.247Z,99962.92
2018-12-17T04:13:58.421Z,99963.50
2018-12-17T04:16:24.557Z,99964.99
2018-12-17T04:18:50.769Z,99975.11
2018-12-17T04:21:17.032Z,99964.34
2018-12-17T04:23:43.244Z,99975.66
2018-12-17T04:26:09.310Z,99974.07
2018-12-17T04:28:35.470Z,99975.21
2018-12-17T04:31:01.692Z,99979.20
2018-12-17T04:33:27.870Z,99986.52
2018-12-17T04:35:53.976Z,99989.58
2018-12-17T04:38:20.069Z,99992.66
2018-12-17T04:40:46.281Z,99985.36
2018-12-17T04:43:12.494Z,99980.69
2018-12-17T04:45:38.672Z,99987.27
2018-12-17T04:48:04.824Z,99994.20
2018-12-17T04:50:30.922Z,99991.66
2018-12-17T04:52:57.180Z,100003.78
2018-12-17T04:55:23.312Z,100001.01
2018-12-17T04:57:50.030Z,99999.72
2018-12-17T05:00:16.298Z,100006.92
2018-12-17T05:02:42.434Z,100018.14
2018-12-17T05:05:08.764Z,100026.50
2018-12-17T05:07:34.909Z,100031.96
2018-12-17T05:10:01.296Z,100027.68
2018-12-17T05:12:27.558Z,100026.48
2018-12-17T05:14:53.841Z,100026.85
2018-12-17T05:17:20.091Z,100036.59
2018-12-17T05:19:46.554Z,100039.69
2018-12-17T05:22:12.790Z,100044.80
2018-12-17T05:24:39.065Z,100039.11
2018-12-17T05:27:05.285Z,100044.41
2018-12-17T05:29:31.552Z,100041.11
2018-12-17T05:31:57.885Z,100048.55
2018-12-17T05:34:24.199Z,100055.71
2018-12-17T05:36:50.500Z,100060.33
2018-12-17T05:39:16.672Z,100058.25
2018-12-17T05:41:43.082Z,100056.89
2018-12-17T05:44:09.431Z,100061.62
2018-12-17T05:46:36.658Z,100062.30
2018-12-17T05:49:03.601Z,100067.16
2018-12-17T05:51:30.164Z,100067.03
2018-12-17T05:53:56.306Z,100068.91
2018-12-17T05:56:22.634Z,100074.66
2018-12-17T05:58:48.791Z,100069.41
2018-12-17T06:01:15.019Z,100073.98
2018-12-17T06:03:41.354Z,100077.82
2018-12-17T06:06:07.699Z,100072.41
2018-12-17T06:08:34.157Z,100080.95
2018-12-17T06:11:00.655Z,100077.30
2018-12-17T06:13:26.807Z,100079.20
2018-12-17T06:15:52.974Z,100083.94
2018-12-17T06:18:19.269Z,100090.20
2018-12-17T06:20:46.345Z,100087.94
2018-12-17T06:23:12.467Z,100093.91
2018-12-17T06:25:38.607Z,100095.56
2018-12-17T06:28:04.789Z,100090.38
2018-12-17T06:30:31.007Z,100098.45
2018-12-17T06:32:57.346Z,100100.17
2018-12-17T06:35:23.655Z,100107.77
2018-12-17T06:37:49.990Z,100106.76
2018-12-17T06:40:16.112Z,100112.38
2018-12-17T06:42:42.255Z,100107.95
2018-12-17T06:45:08.522Z,100116.19
2018-12-17T06:47:34.722Z,100110.72
2018-12-17T06:50:01.028Z,100120.33
2018-12-17T06:52:27.191Z,100130.89
2018-12-17T06:54:54.885Z,100119.47
2018-12-17T06:57:21.427Z,100121.16
2018-12-17T06:59:47.689Z,100125.17
2018-12-17T07:02:21.265Z,100122.91
2018-12-17T07:04:47.486Z,100140.91
2018-12-17T07:07:13.802Z,100145.55
2018-12-17T07:09:39.901Z,100146.75
2018-12-17T07:12:06.249Z,100150.02
2018-12-17T07:14:36.468Z,100157.96
2018-12-17T07:17:02.324Z,100150.47
2018-12-17T07:19:28.579Z,100159.55
2018-12-17T07:21:54.776Z,100159.16
2018-12-17T07:24:21.199Z,100168.36
2018-12-17T07:26:47.325Z,100167.05
2018-12-17T07:29:13.552Z,100169.47
2018-12-17T07:31:39.637Z,100178.51
2018-12-17T07:34:05.860Z,100183.55
2018-12-17T07:36:32.068Z,100187.66
2018-12-17T07:38:58.186Z,100191.98
2018-12-17T07:41:24.267Z,100199.73
2018-12-17T07:43:50.631Z,100196.74
2018-12-17T07:46:16.859Z,100200.52
2018-12-17T07:48:43.852Z,100198.44
2018-12-17T07:51:10.078Z,100205.61
2018-12-17T07:53:36.229Z,100204.59
2018-12-17T07:56:02.517Z,100217.01
2018-12-17T07:58:28.634Z,100208.73
2018-12-17T08:00:54.726Z,100209.52
2018-12-17T08:03:20.966Z,100216.55
2018-12-17T08:05:47.274Z,100220.01
2018-12-17T08:08:13.346Z,100228.88
2018-12-17T08:10:39.605Z,100235.01
2018-12-17T08:13:06.323Z,100233.55
2018-12-17T08:15:32.623Z,100237.22
2018-12-17T08:18:14.386Z,100245.03
2018-12-17T08:20:40.573Z,100239.52
2018-12-17T08:23:06.813Z,100241.25
2018-12-17T08:25:38.551Z,100240.58
2018-12-17T08:28:07.019Z,100250.75
2018-12-17T08:30:33.206Z,100249.44
2018-12-17T08:32:59.309Z,100258.52
2018-12-17T08:35:25.410Z,100258.97
2018-12-17T08:37:51.498Z,100262.56
2018-12-17T08:40:17.654Z,100267.47
2018-12-17T08:42:43.781Z,100261.47
2018-12-17T08:45:10.021Z,100273.84
2018-12-17T08:47:36.255Z,100271.61
2018-12-17T08:50:03.791Z,100282.81
2018-12-17T08:52:36.869Z,100281.28
2018-12-17T08:55:03.548Z,100290.12
2018-12-17T08:57:29.886Z,100293.33
2018-12-17T08:59:56.205Z,100301.48
2018-12-17T09:02:22.431Z,100296.12
2018-12-17T09:04:48.686Z,100308.44
2018-12-17T09:07:15.106Z,100307.28
2018-12-17T09:09:41.446Z,100303.84
2018-12-17T09:12:07.782Z,100298.55
2018-12-17T09:14:34.084Z,100311.20
2018-12-17T09:17:00.459Z,100314.48
2018-12-17T09:19:26.571Z,100316.33
2018-12-17T09:21:52.715Z,100325.42
2018-12-17T09:24:19.029Z,100322.03
2018-12-17T09:26:45.254Z,100325.62
2018-12-17T09:29:11.365Z,100326.97
2018-12-17T09:31:37.552Z,100327.08
2018-12-17T09:34:03.761Z,100322.73
2018-12-17T09:36:30.026Z,100333.25
2018-12-17T09:38:56.192Z,100324.04
2018-12-17T09:41:22.450Z,100323.73
2018-12-17T09:43:48.776Z,100320.02
2018-12-17T09:46:14.891Z,100319.30
2018-12-17T09:48:41.107Z,100321.44
2018-12-17T09:51:07.531Z,100318.22
2018-12-17T09:53:33.710Z,100323.50
2018-12-17T09:55:59.825Z,100329.10
2018-12-17T09:58:25.930Z,100332.97
2018-12-17T10:00:52.237Z,100330.90
2018-12-17T10:03:18.541Z,100332.20
2018-12-17T10:05:53.089Z,100328.02
2018-12-17T10:08:19.302Z,100333.92
2018-12-17T10:10:45.561Z,100337.31
2018-12-17T10:13:11.667Z,100330.45
2018-12-17T10:15:38.078Z,100329.06
2018-12-17T10:18:04.305Z,100328.34
2018-12-17T10:23:31.097Z,100333.25
2018-12-17T10:25:57.278Z,100331.94
2018-12-17T10:28:23.425Z,100328.03
2018-12-17T10:30:49.546Z,100325.50
2018-12-17T10:33:15.705Z,100330.83
2018-12-17T10:42:00.985Z,100330.18
2018-12-17T10:44:28.076Z,100334.75
2018-12-17T10:46:54.523Z,100329.77
2018-12-17T10:49:20.730Z,100335.73
2018-12-17T10:51:47.081Z,100329.08
2018-12-17T10:54:13.253Z,100323.72
2018-12-17T10:56:39.557Z,100323.20
2018-12-17T10:59:05.771Z,100320.84
2018-12-17T11:01:38.002Z,100318.98
2018-12-17T11:04:06.414Z,100315.66
2018-12-17T11:06:32.811Z,100307.64
2018-12-17T11:08:59.292Z,100311.56
2018-12-17T11:11:25.561Z,100311.71
2018-12-17T11:13:51.794Z,100308.41
2018-12-17T11:18:57.656Z,100309.30
2018-12-17T11:21:23.883Z,100307.66
2018-12-17T11:23:50.204Z,100308.72
2018-12-17T11:26:16.499Z,100307.17
2018-12-17T11:28:42.681Z,100301.13
2018-12-17T11:31:08.788Z,100301.48
2018-12-17T11:33:35.015Z,100292.02
2018-12-17T11:38:40.440Z,100299.73
2018-12-17T11:41:07.437Z,100299.29
2018-12-17T11:43:33.575Z,100297.69
2018-12-17T11:46:01.735Z,100304.80
2018-12-17T11:48:28.271Z,100308.77
2018-12-17T11:50:54.398Z,100309.02
2018-12-17T11:53:20.643Z,100314.14
2018-12-17T11:55:46.858Z,100313.57
2018-12-17T11:58:13.184Z,100323.77
2018-12-17T12:00:40.734Z,100330.72
2018-12-17T12:03:06.869Z,100316.86
2018-12-17T12:05:33.136Z,100314.47
2018-12-17T12:07:59.266Z,100322.55
2018-12-17T12:10:25.526Z,100323.20
2018-12-17T12:12:51.713Z,100323.77
2018-12-17T12:15:18.117Z,100328.62
2018-12-17T12:17:44.243Z,100330.25
2018-12-17T12:20:10.365Z,100329.52
2018-12-17T12:22:36.642Z,100335.63
2018-12-17T12:25:04.402Z,100345.89
2018-12-17T12:27:30.857Z,100340.22
2018-12-17T12:29:57.410Z,100341.48
2018-12-17T12:32:23.701Z,100343.38
2018-12-17T12:34:50.016Z,100339.88
2018-12-17T12:37:16.141Z,100337.94
2018-12-17T12:39:42.291Z,100338.28
2018-12-17T12:42:09.457Z,100337.72
2018-12-17T12:44:35.660Z,100343.06
2018-12-17T12:47:02.001Z,100350.01
2018-12-17T12:49:28.076Z,100347.23
2018-12-17T12:51:54.268Z,100352.64
2018-12-17T12:54:20.397Z,100341.77
2018-12-17T12:56:46.590Z,100347.55
2018-12-17T12:59:12.683Z,100348.87
2018-12-17T13:01:38.816Z,100339.28
2018-12-17T13:04:05.123Z,100345.45
2018-12-17T13:06:31.685Z,100346.75
2018-12-17T13:08:57.770Z,100346.95
2018-12-17T13:11:23.877Z,100336.73
2018-12-17T13:13:49.999Z,100341.98
2018-12-17T13:16:16.124Z,100350.02
2018-12-17T13:18:42.244Z,100350.49
2018-12-17T13:21:08.465Z,100349.84
2018-12-17T13:23:34.584Z,100353.80
2018-12-17T13:26:00.695Z,100351.72
2018-12-17T13:28:26.762Z,100348.61
2018-12-17T13:30:52.894Z,100358.00
2018-12-17T13:33:19.000Z,100362.33
2018-12-17T13:35:45.201Z,100368.52
2018-12-17T13:38:12.570Z,100368.80
2018-12-17T13:40:39.595Z,100367.01
2018-12-17T13:45:45.090Z,100377.74
2018-12-17T13:48:11.181Z,100375.00
2018-12-17T13:50:39.574Z,100374.98
2018-12-17T13:53:12.116Z,100373.11
2018-12-17T13:55:38.294Z,100380.45
2018-12-17T13:58:05.359Z,100381.73
2018-12-17T14:00:31.829Z,100387.83
2018-12-17T14:02:58.100Z,100396.34
2018-12-17T14:05:25.412Z,100404.06
2018-12-17T14:07:52.679Z,100405.37
2018-12-17T14:13:17.067Z,100409.87
2018-12-17T14:15:50.137Z,100413.43
2018-12-17T14:18:23.622Z,100413.27
2018-12-17T14:21:02.966Z,100416.22
2018-12-17T14:23:29.150Z,100420.34
2018-12-17T14:25:55.394Z,100420.36
2018-12-17T14:28:21.548Z,100421.73
2018-12-17T14:30:47.803Z,100419.23
2018-12-17T14:33:14.093Z,100416.63
2018-12-17T14:35:42.373Z,100419.11
2018-12-17T14:38:08.689Z,100417.87
2018-12-17T14:40:34.790Z,100422.80
2018-12-17T14:43:00.926Z,100433.81
2018-12-17T14:45:27.170Z,100437.61
2018-12-17T14:47:53.402Z,100449.98
2018-12-17T14:50:19.782Z,100447.73
2018-12-17T14:52:45.954Z,100448.19
2018-12-17T14:55:12.249Z,100455.94
2018-12-17T14:57:38.617Z,100450.59
2018-12-17T15:00:09.761Z,100454.73
2018-12-17T15:02:36.064Z,100458.83
2018-12-17T15:05:06.414Z,100457.64
2018-12-17T15:07:32.751Z,100453.70
2018-12-17T15:09:59.078Z,100465.29
2018-12-17T15:12:25.987Z,100463.36
2018-12-17T15:14:52.106Z,100462.23
2018-12-17T15:17:18.436Z,100467.98
2018-12-17T15:19:51.973Z,100469.52
2018-12-17T15:22:18.161Z,100472.66
2018-12-17T15:24:44.294Z,100467.45
2018-12-17T15:27:10.511Z,100473.17
2018-12-17T15:29:36.677Z,100483.56
2018-12-17T15:32:03.655Z,100491.23
2018-12-17T15:34:29.770Z,100493.64
2018-12-17T15:36:55.982Z,100502.48
2018-12-17T15:39:22.194Z,100500.65
2018-12-17T15:41:48.561Z,100499.31
2018-12-17T15:44:14.676Z,100497.59
2018-12-17T15:46:40.907Z,100500.66
2018-12-17T15:49:07.032Z,100508.89
2018-12-17T15:51:33.803Z,100501.69
2018-12-17T15:54:00.210Z,100506.24
2018-12-17T15:56:27.812Z,100509.23
2018-12-17T15:58:53.932Z,100506.70
2018-12-17T16:01:20.233Z,100512.61
2018-12-17T16:03:47.469Z,100507.42
2018-12-17T16:06:14.715Z,100514.48
2018-12-17T16:08:41.506Z,100519.88
2018-12-17T16:11:07.750Z,100524.22
2018-12-17T16:13:33.972Z,100520.91
2018-12-17T16:16:00.557Z,100526.25
2018-12-17T16:18:26.805Z,100522.69
2018-12-17T16:20:53.896Z,100530.48
2018-12-17T16:23:20.163Z,100537.56
2018-12-17T16:25:46.426Z,100528.89
2018-12-17T16:28:12.721Z,100521.59
2018-12-17T16:30:38.871Z,100535.47
2018-12-17T16:33:05.185Z,100533.93
2018-12-17T16:35:31.738Z,100534.66
2018-12-17T16:37:57.920Z,100531.48
2018-12-17T16:40:24.478Z,100523.78
2018-12-17T16:42:50.590Z,100531.25
2018-12-17T16:45:17.745Z,100525.80
2018-12-17T16:47:43.960Z,100526.65
2018-12-17T16:50:10.393Z,100525.23
2018-12-17T16:52:36.552Z,100519.17
2018-12-17T16:55:03.499Z,100528.55
2018-12-17T16:57:29.770Z,100526.23
2018-12-17T16:59:55.995Z,100518.06
2018-12-17T17:02:22.407Z,100530.45
2018-12-17T17:04:48.640Z,100528.61
2018-12-17T17:07:14.877Z,100536.13
2018-12-17T17:09:41.260Z,100536.24
2018-12-17T17:12:07.613Z,100539.69
2018-12-17T17:14:34.309Z,100539.49
2018-12-17T17:17:00.757Z,100550.93
2018-12-17T17:19:33.915Z,100541.30
2018-12-17T17:22:00.272Z,100547.53
2018-12-17T17:24:26.990Z,100547.53
2018-12-17T17:26:53.467Z,100550.78
2018-12-17T17:29:21.466Z,100548.87
2018-12-17T17:31:47.742Z,100561.27
2018-12-17T17:34:13.972Z,100565.82
2018-12-17T17:36:40.288Z,100567.47
2018-12-17T17:39:08.065Z,100570.77
2018-12-17T17:41:35.104Z,100569.30
2018-12-17T17:44:01.501Z,100574.36
2018-12-17T17:46:27.752Z,100573.41
2018-12-17T17:48:56.440Z,100572.45
2018-12-17T17:51:29.513Z,100564.84
2018-12-17T17:53:56.294Z,100578.23
2018-12-17T17:56:23.677Z,100580.98
2018-12-17T17:58:51.016Z,100583.20
2018-12-17T18:01:17.357Z,100590.34
2018-12-17T18:03:43.570Z,100539.72
2018-12-17T18:06:16.382Z,100597.49
2018-12-17T18:08:42.058Z,100599.19
2018-12-17T18:11:08.265Z,100603.84
2018-12-17T18:13:34.492Z,100610.95
2018-12-17T18:16:00.729Z,100610.88
2018-12-17T18:18:27.671Z,100617.96
2018-12-17T18:20:53.876Z,100614.52
2018-12-17T18:23:20.876Z,100626.63
2018-12-17T18:25:47.180Z,100624.47
2018-12-17T18:28:13.474Z,100619.86
2018-12-17T18:30:39.612Z,100623.76
2018-12-17T18:33:06.249Z,100628.55
2018-12-17T18:35:34.160Z,100626.44
2018-12-17T18:38:00.658Z,100628.09
2018-12-17T18:40:27.003Z,100634.55
2018-12-17T18:42:53.884Z,100634.82
2018-12-17T18:45:20.198Z,100641.05
2018-12-17T18:47:47.287Z,100637.34
2018-12-17T18:50:13.575Z,100640.25
2018-12-17T18:52:39.721Z,100644.90
2018-12-17T18:55:06.069Z,100646.20
2018-12-17T18:57:32.439Z,100651.78
2018-12-17T18:59:58.557Z,100659.05
2018-12-17T19:02:24.763Z,100664.31
2018-12-17T19:04:50.965Z,100664.85
2018-12-17T19:07:17.412Z,100668.94
2018-12-17T19:09:43.730Z,100669.12
2018-12-17T19:12:09.958Z,100670.03
2018-12-17T19:14:36.129Z,100654.70
2018-12-17T19:17:02.406Z,100678.50
2018-12-17T19:19:28.580Z,100670.55
2018-12-17T19:21:54.841Z,100680.10
2018-12-17T19:24:21.076Z,100681.92
2018-12-17T19:26:47.314Z,100686.49
2018-12-17T19:29:13.539Z,100702.70
2018-12-17T19:31:39.652Z,100693.31
2018-12-17T19:34:05.913Z,100695.99
2018-12-17T19:36:32.345Z,100697.73
2018-12-17T19:38:58.638Z,100695.78
2018-12-17T19:41:24.761Z,100697.22
2018-12-17T19:43:51.051Z,100697.14
2018-12-17T19:46:17.195Z,100698.13
2018-12-17T19:48:43.445Z,100696.16
2018-12-17T19:51:09.656Z,100701.19
2018-12-17T19:53:35.899Z,100701.61
2018-12-17T19:56:03.568Z,100702.61
2018-12-17T19:58:29.895Z,100699.98
2018-12-17T20:00:56.087Z,100702.25
2018-12-17T20:03:22.587Z,100707.21
2018-12-17T20:05:48.782Z,100703.94
2018-12-17T20:08:15.125Z,100702.83
2018-12-17T20:10:42.491Z,100702.98
2018-12-17T20:13:15.565Z,100701.86
2018-12-17T20:15:42.822Z,100708.76
2018-12-17T20:18:09.065Z,100710.57
2018-12-17T20:20:35.398Z,100713.75
2018-12-17T20:23:01.534Z,100709.84
2018-12-17T20:25:28.187Z,100722.14
2018-12-17T20:27:54.855Z,100727.73
2018-12-17T20:30:27.499Z,100718.47
2018-12-17T20:32:55.237Z,100722.88
2018-12-17T20:35:28.745Z,100728.49
2018-12-17T20:37:55.576Z,100731.09
2018-12-17T20:40:21.812Z,100730.55
2018-12-17T20:42:48.656Z,100739.30
2018-12-17T20:45:14.941Z,100727.62
2018-12-17T20:47:41.547Z,100733.75
2018-12-17T20:50:08.554Z,100725.60
2018-12-17T20:52:35.484Z,100730.31
2018-12-17T20:55:01.952Z,100731.84
2018-12-17T21:00:11.718Z,100726.89
2018-12-17T21:02:38.029Z,100733.28
2018-12-17T21:05:04.660Z,100735.91
2018-12-17T21:07:30.865Z,100730.98
2018-12-17T21:10:05.984Z,100724.30
2018-12-17T21:12:32.161Z,100726.86
2018-12-17T21:14:58.328Z,100730.82
2018-12-17T21:17:24.855Z,100731.99
2018-12-17T21:19:52.030Z,100733.47
2018-12-17T21:22:18.204Z,100733.23
2018-12-17T21:24:51.378Z,100725.88
2018-12-17T21:27:17.751Z,100728.05
2018-12-17T21:29:43.892Z,100727.20
2018-12-17T21:32:09.999Z,100732.06
2018-12-17T21:34:36.135Z,100735.17
2018-12-17T21:37:02.494Z,100734.67
2018-12-17T21:39:28.746Z,100731.16
2018-12-17T21:41:54.973Z,100734.22
2018-12-17T21:44:21.129Z,100737.84
2018-12-17T21:46:47.531Z,100748.02
2018-12-17T21:49:13.698Z,100741.73
2018-12-17T21:51:39.999Z,100749.72
2018-12-17T21:54:06.133Z,100753.84
2018-12-17T21:56:33.074Z,100748.87
2018-12-17T22:01:32.085Z,100766.26
2018-12-17T22:03:58.479Z,100763.98
2018-12-17T22:06:24.704Z,100762.35
2018-12-17T22:08:50.810Z,100766.34
2018-12-17T22:11:17.034Z,100769.52
2018-12-17T22:13:43.239Z,100773.13
2018-12-17T22:16:09.485Z,100773.62
2018-12-17T22:18:35.598Z,100769.20
2018-12-17T22:21:01.805Z,100776.55
2018-12-17T22:23:27.942Z,100773.62
2018-12-17T22:25:54.222Z,100767.41
2018-12-17T22:28:20.357Z,100776.70
2018-12-17T22:30:46.589Z,100767.64
2018-12-17T22:33:20.115Z,100772.34
2018-12-17T22:35:46.716Z,100775.22
2018-12-17T22:38:12.953Z,100770.07
2018-12-17T22:40:39.789Z,100773.58
2018-12-17T22:43:05.965Z,100770.55
2018-12-17T22:45:32.112Z,100774.55
2018-12-17T22:50:36.119Z,100779.49
2018-12-17T22:53:02.725Z,100784.14
2018-12-17T22:55:29.207Z,100776.99
2018-12-17T22:57:55.446Z,100779.32
2018-12-17T23:00:22.365Z,100785.33
2018-12-17T23:02:48.621Z,100786.45
2018-12-17T23:05:15.854Z,100780.80
2018-12-17T23:07:42.062Z,100789.23
2018-12-17T23:10:26.811Z,100790.30
2018-12-17T23:13:11.626Z,100786.63
2018-12-17T23:15:56.425Z,100791.82
2018-12-17T23:18:22.372Z,100790.45
2018-12-17T23:20:48.581Z,100791.52
2018-12-17T23:23:15.310Z,100793.42
2018-12-17T23:25:41.513Z,100793.39
2018-12-17T23:28:07.988Z,100785.22
2018-12-17T23:30:34.431Z,100791.94
2018-12-17T23:33:00.702Z,100789.66
2018-12-17T23:35:27.029Z,100790.30
2018-12-17T23:37:53.361Z,100796.13
2018-12-17T23:40:19.472Z,100790.52
2018-12-17T23:42:45.708Z,100796.62
2018-12-17T23:45:17.228Z,100794.88
2018-12-17T23:47:43.313Z,100794.80
2018-12-17T23:50:09.426Z,100799.25
2018-12-17T23:52:35.653Z,100794.05
2018-12-17T23:55:02.279Z,100794.62
2018-12-17T23:57:28.408Z,100796.83
2018-12-17T23:59:54.661Z,100789.54
